createdAt,value
2018-12-13T00:00:44.380Z,13.03
2018-12-13T00:03:12.513Z,14.07
2018-12-13T00:05:40.741Z,14.90
2018-12-13T00:08:08.960Z,14.33
2018-12-13T00:10:37.195Z,14.93
2018-12-13T00:13:05.305Z,14.50
2018-12-13T00:15:33.741Z,14.70
2018-12-13T00:18:01.913Z,15.40
2018-12-13T00:20:30.207Z,15.60
2018-12-13T00:22:58.283Z,14.07
2018-12-13T00:25:26.525Z,14.07
2018-12-13T00:27:54.839Z,12.67
2018-12-13T00:30:23.160Z,13.57
2018-12-13T00:32:51.561Z,12.97
2018-12-13T00:35:19.892Z,12.90
2018-12-13T00:37:48.172Z,12.80
2018-12-13T00:40:16.474Z,13.37
2018-12-13T00:42:44.582Z,12.60
2018-12-13T00:45:12.683Z,12.97
2018-12-13T00:47:41.006Z,13.17
2018-12-13T00:50:09.353Z,13.27
2018-12-13T00:52:37.625Z,13.00
2018-12-13T00:55:06.084Z,13.83
2018-12-13T00:57:34.240Z,14.10
2018-12-13T01:00:02.421Z,12.33
2018-12-13T01:02:30.725Z,11.83
2018-12-13T01:04:58.854Z,11.80
2018-12-13T01:07:27.177Z,12.53
2018-12-13T01:09:55.279Z,12.43
2018-12-13T01:12:23.478Z,13.37
2018-12-13T01:14:51.605Z,14.20
2018-12-13T01:17:19.928Z,14.00
2018-12-13T01:19:48.039Z,14.60
2018-12-13T01:22:16.098Z,13.27
2018-12-13T01:24:44.326Z,13.73
2018-12-13T01:27:12.460Z,14.70
2018-12-13T01:29:40.594Z,15.03
2018-12-13T01:32:08.845Z,14.77
2018-12-13T01:34:36.991Z,14.33
2018-12-13T01:37:05.116Z,13.93
2018-12-13T01:39:33.193Z,13.80
2018-12-13T01:42:01.515Z,13.70
2018-12-13T01:44:29.682Z,12.93
2018-12-13T01:46:57.836Z,14.80
2018-12-13T01:49:25.985Z,15.00
2018-12-13T01:51:54.138Z,13.67
2018-12-13T01:54:22.247Z,14.87
2018-12-13T01:56:50.404Z,15.00
2018-12-13T01:59:18.524Z,13.60
2018-12-13T02:01:46.868Z,14.03
2018-12-13T02:04:15.150Z,14.83
2018-12-13T02:06:43.330Z,13.53
2018-12-13T02:09:11.604Z,14.07
2018-12-13T02:11:39.916Z,13.80
2018-12-13T02:14:08.044Z,14.13
2018-12-13T02:16:36.140Z,14.97
2018-12-13T02:19:04.567Z,14.13
2018-12-13T02:21:32.684Z,14.20
2018-12-13T02:24:02.098Z,13.63
2018-12-13T02:26:30.500Z,13.17
2018-12-13T02:28:58.775Z,13.60
2018-12-13T02:31:27.054Z,12.20
2018-12-13T02:33:58.830Z,13.17
2018-12-13T02:36:27.164Z,13.90
2018-12-13T02:38:55.406Z,13.27
2018-12-13T02:41:23.613Z,13.23
2018-12-13T02:43:52.529Z,13.67
2018-12-13T02:46:20.708Z,14.20
2018-12-13T02:48:54.268Z,14.10
2018-12-13T02:51:22.421Z,14.20
2018-12-13T02:53:50.686Z,13.70
2018-12-13T02:56:18.809Z,14.40
2018-12-13T02:58:46.917Z,14.50
2018-12-13T03:01:15.055Z,14.40
2018-12-13T03:03:43.413Z,14.30
2018-12-13T03:06:11.568Z,13.97
2018-12-13T03:08:39.652Z,14.00
2018-12-13T03:11:07.799Z,14.23
2018-12-13T03:13:35.905Z,13.90
2018-12-13T03:16:04.402Z,13.67
2018-12-13T03:18:32.727Z,13.60
2018-12-13T03:21:00.838Z,13.67
2018-12-13T03:23:29.323Z,14.00
2018-12-13T03:25:57.527Z,14.80
2018-12-13T03:28:25.811Z,13.40
2018-12-13T03:30:53.952Z,13.37
2018-12-13T03:33:22.378Z,12.27
2018-12-13T03:35:50.461Z,13.30
2018-12-13T03:38:18.819Z,13.57
2018-12-13T03:40:46.949Z,13.73
2018-12-13T03:43:15.218Z,13.03
2018-12-13T03:45:43.426Z,13.33
2018-12-13T03:48:11.544Z,13.47
2018-12-13T03:50:39.786Z,13.00
2018-12-13T03:53:08.092Z,12.97
2018-12-13T03:55:36.237Z,13.40
2018-12-13T03:58:04.478Z,12.63
2018-12-13T04:00:32.615Z,12.47
2018-12-13T04:03:00.950Z,12.93
2018-12-13T04:05:30.325Z,12.67
2018-12-13T04:07:58.492Z,12.57
2018-12-13T04:10:26.816Z,14.10
2018-12-13T04:12:55.092Z,12.47
2018-12-13T04:15:23.227Z,12.03
2018-12-13T04:17:51.384Z,14.07
2018-12-13T04:20:19.740Z,15.07
2018-12-13T04:22:47.887Z,12.87
2018-12-13T04:25:16.218Z,13.80
2018-12-13T04:27:44.309Z,13.40
2018-12-13T04:30:12.760Z,14.10
2018-12-13T04:32:40.981Z,13.17
2018-12-13T04:35:09.163Z,13.10
2018-12-13T04:37:37.440Z,13.97
2018-12-13T04:40:05.862Z,13.53
2018-12-13T04:42:33.971Z,12.43
2018-12-13T04:45:02.520Z,12.57
2018-12-13T04:47:30.625Z,14.40
2018-12-13T04:49:59.034Z,15.10
2018-12-13T04:52:27.208Z,14.00
2018-12-13T04:54:55.536Z,13.97
2018-12-13T04:57:24.572Z,14.17
2018-12-13T04:59:52.745Z,14.60
2018-12-13T05:02:20.916Z,14.30
2018-12-13T05:04:49.198Z,14.90
2018-12-13T05:07:17.319Z,15.63
2018-12-13T05:09:52.418Z,13.33
2018-12-13T05:12:20.745Z,15.37
2018-12-13T05:14:48.857Z,15.00
2018-12-13T05:17:16.985Z,13.57
2018-12-13T05:19:45.234Z,14.13
2018-12-13T05:22:13.370Z,16.33
2018-12-13T05:24:41.551Z,16.50
2018-12-13T05:27:09.797Z,17.93
2018-12-13T05:29:38.111Z,18.17
2018-12-13T05:32:06.906Z,17.77
2018-12-13T05:34:35.233Z,17.67
2018-12-13T05:37:03.380Z,17.03
2018-12-13T05:39:31.824Z,16.27
2018-12-13T05:41:59.957Z,17.10
2018-12-13T05:44:28.645Z,17.30
2018-12-13T05:46:57.107Z,17.97
2018-12-13T05:49:25.463Z,16.40
2018-12-13T05:51:54.281Z,17.83
2018-12-13T05:54:22.898Z,16.57
2018-12-13T05:56:51.145Z,17.47
2018-12-13T05:59:19.455Z,18.80
2018-12-13T06:01:48.849Z,16.57
2018-12-13T06:04:17.008Z,18.80
2018-12-13T06:06:45.154Z,18.13
2018-12-13T06:09:13.336Z,16.97
2018-12-13T06:11:41.604Z,18.17
2018-12-13T06:14:09.750Z,17.83
2018-12-13T06:16:37.958Z,17.50
2018-12-13T06:19:06.128Z,18.20
2018-12-13T06:21:37.005Z,18.80
2018-12-13T06:24:04.620Z,18.13
2018-12-13T06:26:32.726Z,18.00
2018-12-13T06:29:00.976Z,16.43
2018-12-13T06:31:29.252Z,17.87
2018-12-13T06:33:57.497Z,18.70
2018-12-13T06:36:25.778Z,17.77
2018-12-13T06:38:53.941Z,18.17
2018-12-13T06:41:23.019Z,18.97
2018-12-13T06:43:52.326Z,18.43
2018-12-13T06:46:20.937Z,16.63
2018-12-13T06:48:49.089Z,16.97
2018-12-13T06:51:17.232Z,19.90
2018-12-13T06:53:45.303Z,18.77
2018-12-13T06:56:13.439Z,20.00
2018-12-13T06:58:41.585Z,18.13
2018-12-13T07:01:10.039Z,16.83
2018-12-13T07:03:38.203Z,18.43
2018-12-13T07:06:06.365Z,16.27
2018-12-13T07:08:34.671Z,17.93
2018-12-13T07:11:03.010Z,18.23
2018-12-13T07:13:31.196Z,16.57
2018-12-13T07:15:59.532Z,16.57
2018-12-13T07:18:27.690Z,16.60
2018-12-13T07:20:55.894Z,16.60
2018-12-13T07:23:24.103Z,15.53
2018-12-13T07:25:52.235Z,14.80
2018-12-13T07:28:20.441Z,16.90
2018-12-13T07:30:48.781Z,16.17
2018-12-13T07:33:16.988Z,16.50
2018-12-13T07:35:45.169Z,16.27
2018-12-13T07:38:14.472Z,16.50
2018-12-13T07:40:43.220Z,18.17
2018-12-13T07:43:11.348Z,17.20
2018-12-13T07:45:39.518Z,18.13
2018-12-13T07:48:07.896Z,18.00
2018-12-13T07:50:36.056Z,18.97
2018-12-13T07:53:04.361Z,17.70
2018-12-13T07:55:32.465Z,18.43
2018-12-13T07:58:00.586Z,17.53
2018-12-13T08:00:28.956Z,16.03
2018-12-13T08:02:57.326Z,17.37
2018-12-13T08:05:27.578Z,17.83
2018-12-13T08:07:55.859Z,18.53
2018-12-13T08:10:24.010Z,20.33
2018-12-13T08:12:52.175Z,18.63
2018-12-13T08:15:21.566Z,19.17
2018-12-13T08:17:49.663Z,20.03
2018-12-13T08:20:17.872Z,18.53
2018-12-13T08:22:46.247Z,18.57
2018-12-13T08:25:14.368Z,20.07
2018-12-13T08:27:42.518Z,18.13
2018-12-13T08:30:10.856Z,18.67
2018-12-13T08:32:39.237Z,19.50
2018-12-13T08:35:07.602Z,19.90
2018-12-13T08:37:35.694Z,20.17
2018-12-13T08:40:04.956Z,18.57
2018-12-13T08:42:33.076Z,18.73
2018-12-13T08:45:01.229Z,18.40
2018-12-13T08:47:29.360Z,19.37
2018-12-13T08:49:57.465Z,19.20
2018-12-13T08:52:25.637Z,17.50
2018-12-13T08:54:53.749Z,18.07
2018-12-13T08:57:21.875Z,18.57
2018-12-13T08:59:49.983Z,19.30
2018-12-13T09:02:18.259Z,19.40
2018-12-13T09:04:46.369Z,19.70
2018-12-13T09:07:14.431Z,18.30
2018-12-13T09:09:42.629Z,19.73
2018-12-13T09:12:10.758Z,18.60
2018-12-13T09:14:38.925Z,19.10
2018-12-13T09:17:07.030Z,18.83
2018-12-13T09:19:35.258Z,19.83
2018-12-13T09:22:03.624Z,19.93
2018-12-13T09:24:31.736Z,19.03
2018-12-13T09:26:59.888Z,20.20
2018-12-13T09:29:28.147Z,18.13
2018-12-13T09:31:56.250Z,19.13
2018-12-13T09:34:24.474Z,18.30
2018-12-13T09:36:52.635Z,18.73
2018-12-13T09:39:20.798Z,17.33
2018-12-13T09:41:49.142Z,17.73
2018-12-13T09:44:17.302Z,18.63
2018-12-13T09:46:46.590Z,18.27
2018-12-13T09:49:14.823Z,17.83
2018-12-13T09:51:43.037Z,17.90
2018-12-13T09:54:11.134Z,17.23
2018-12-13T09:56:39.336Z,17.80
2018-12-13T09:59:07.445Z,18.07
2018-12-13T10:01:35.574Z,16.10
2018-12-13T10:04:03.906Z,16.73
2018-12-13T10:06:32.114Z,18.00
2018-12-13T10:09:00.259Z,17.67
2018-12-13T10:11:28.556Z,18.83
2018-12-13T10:13:56.711Z,16.47
2018-12-13T10:16:24.965Z,17.53
2018-12-13T10:18:53.142Z,21.73
2018-12-13T10:21:21.305Z,19.50
2018-12-13T10:23:49.424Z,17.03
2018-12-13T10:26:17.723Z,19.17
2018-12-13T10:28:45.915Z,18.90
2018-12-13T10:31:14.336Z,16.67
2018-12-13T10:33:42.504Z,19.03
2018-12-13T10:36:10.727Z,19.10
2018-12-13T10:38:39.028Z,19.87
2018-12-13T10:41:07.090Z,20.10
2018-12-13T10:43:35.212Z,19.10
2018-12-13T10:46:03.310Z,20.73
2018-12-13T10:48:31.870Z,19.13
2018-12-13T10:51:00.106Z,17.30
2018-12-13T10:53:28.232Z,16.33
2018-12-13T10:55:56.337Z,17.57
2018-12-13T10:58:24.511Z,17.10
2018-12-13T11:00:58.503Z,16.50
2018-12-13T11:03:41.452Z,16.43
2018-12-13T11:06:09.594Z,16.23
2018-12-13T11:08:37.782Z,15.17
2018-12-13T11:11:06.034Z,16.03
2018-12-13T11:13:34.183Z,15.23
2018-12-13T11:16:02.358Z,14.93
2018-12-13T11:18:30.530Z,14.53
2018-12-13T11:20:58.680Z,14.43
2018-12-13T11:23:26.824Z,14.50
2018-12-13T11:25:54.968Z,14.23
2018-12-13T11:29:39.554Z,12.77
2018-12-13T11:32:07.659Z,13.23
2018-12-13T11:34:36.329Z,13.17
2018-12-13T11:37:04.532Z,13.07
2018-12-13T11:39:32.620Z,12.60
2018-12-13T11:42:00.710Z,12.57
2018-12-13T11:44:29.897Z,12.67
2018-12-13T11:46:58.229Z,12.80
2018-12-13T11:49:26.440Z,12.30
2018-12-13T11:51:54.566Z,12.23
2018-12-13T11:54:55.543Z,11.10
2018-12-13T11:57:24.371Z,11.80
2018-12-13T11:59:52.521Z,12.07
2018-12-13T12:02:24.026Z,12.03
2018-12-13T12:04:50.683Z,13.30
2018-12-13T12:07:18.858Z,11.13
2018-12-13T12:09:46.940Z,12.50
2018-12-13T12:12:15.061Z,12.30
2018-12-13T12:14:43.193Z,12.80
2018-12-13T12:17:11.278Z,12.17
2018-12-13T12:19:39.397Z,11.77
2018-12-13T12:22:07.540Z,12.27
2018-12-13T12:24:35.696Z,12.00
2018-12-13T12:27:03.902Z,12.40
2018-12-13T12:29:31.969Z,11.80
2018-12-13T12:32:00.104Z,12.93
2018-12-13T12:34:28.250Z,12.33
2018-12-13T12:36:56.370Z,12.23
2018-12-13T12:39:24.504Z,12.80
2018-12-13T12:41:52.664Z,11.70
2018-12-13T12:44:20.798Z,13.30
2018-12-13T12:46:48.903Z,13.20
2018-12-13T12:49:16.996Z,13.40
2018-12-13T12:51:45.139Z,13.47
2018-12-13T12:54:13.276Z,12.23
2018-12-13T12:56:41.498Z,14.00
2018-12-13T12:59:09.592Z,12.20
2018-12-13T13:01:37.902Z,12.37
2018-12-13T13:04:06.153Z,12.73
2018-12-13T13:06:34.316Z,13.33
2018-12-13T13:09:03.812Z,13.33
2018-12-13T13:11:31.933Z,13.43
2018-12-13T13:14:00.119Z,12.07
2018-12-13T13:16:28.285Z,12.53
2018-12-13T13:18:56.553Z,12.33
2018-12-13T13:21:24.667Z,13.60
2018-12-13T13:23:52.739Z,12.07
2018-12-13T13:26:20.915Z,11.27
2018-12-13T13:28:49.118Z,13.30
2018-12-13T13:31:18.599Z,11.73
2018-12-13T13:33:47.230Z,11.87
2018-12-13T13:36:15.566Z,12.17
2018-12-13T13:38:43.703Z,13.03
2018-12-13T13:41:11.880Z,13.67
2018-12-13T13:43:43.116Z,13.30
2018-12-13T13:46:12.640Z,13.17
2018-12-13T13:48:41.822Z,13.97
2018-12-13T13:51:09.948Z,12.97
2018-12-13T13:53:38.050Z,12.30
2018-12-13T13:56:06.212Z,12.40
2018-12-13T13:58:34.480Z,12.37
2018-12-13T14:01:02.672Z,12.50
2018-12-13T14:03:30.776Z,12.23
2018-12-13T14:05:59.307Z,11.37
2018-12-13T14:08:27.410Z,11.90
2018-12-13T14:10:55.607Z,11.53
2018-12-13T14:13:23.707Z,12.33
2018-12-13T14:15:51.949Z,12.00
2018-12-13T14:18:20.106Z,12.20
2018-12-13T14:20:48.353Z,12.57
2018-12-13T14:23:17.613Z,13.50
2018-12-13T14:25:45.769Z,14.20
2018-12-13T14:28:13.905Z,13.93
2018-12-13T14:30:42.158Z,13.83
2018-12-13T14:33:10.686Z,13.37
2018-12-13T14:35:39.123Z,14.10
2018-12-13T14:38:07.249Z,14.30
2018-12-13T14:40:35.352Z,13.67
2018-12-13T14:43:03.554Z,12.00
2018-12-13T14:45:31.747Z,14.50
2018-12-13T14:47:59.889Z,13.37
2018-12-13T14:50:28.090Z,13.03
2018-12-13T14:52:56.223Z,13.40
2018-12-13T14:55:24.338Z,12.83
2018-12-13T14:57:52.501Z,13.60
2018-12-13T15:00:20.706Z,12.97
2018-12-13T15:02:48.805Z,14.37
2018-12-13T15:05:16.983Z,13.53
2018-12-13T15:07:45.145Z,13.63
2018-12-13T15:10:13.261Z,13.97
2018-12-13T15:12:41.444Z,13.47
2018-12-13T15:15:09.845Z,12.50
2018-12-13T15:17:39.227Z,13.50
2018-12-13T15:20:09.545Z,13.37
2018-12-13T15:22:37.724Z,14.27
2018-12-13T15:25:07.555Z,13.77
2018-12-13T15:27:35.843Z,14.57
2018-12-13T15:30:04.811Z,13.67
2018-12-13T15:32:32.963Z,13.70
2018-12-13T15:35:01.107Z,13.23
2018-12-13T15:37:36.313Z,13.93
2018-12-13T15:40:04.804Z,13.23
2018-12-13T15:42:32.898Z,13.47
2018-12-13T15:45:01.032Z,13.70
2018-12-13T15:47:29.171Z,14.17
2018-12-13T15:49:57.398Z,13.47
2018-12-13T15:52:25.525Z,14.60
2018-12-13T15:54:53.694Z,13.07
2018-12-13T15:57:21.752Z,13.60
2018-12-13T15:59:49.942Z,14.10
2018-12-13T16:02:18.031Z,15.23
2018-12-13T16:04:46.158Z,14.73
2018-12-13T16:07:14.215Z,13.23
2018-12-13T16:09:42.427Z,14.27
2018-12-13T16:12:10.635Z,14.07
2018-12-13T16:14:38.758Z,12.50
2018-12-13T16:17:07.034Z,13.20
2018-12-13T16:19:35.109Z,14.10
2018-12-13T16:22:03.343Z,13.57
2018-12-13T16:24:31.459Z,12.63
2018-12-13T16:26:59.585Z,13.47
2018-12-13T16:29:27.671Z,13.53
2018-12-13T16:31:59.699Z,13.20
2018-12-13T16:34:27.786Z,12.67
2018-12-13T16:36:56.316Z,13.53
2018-12-13T16:39:24.425Z,13.70
2018-12-13T16:41:52.713Z,12.30
2018-12-13T16:44:21.632Z,13.40
2018-12-13T16:46:49.893Z,13.07
2018-12-13T16:49:18.899Z,13.37
2018-12-13T16:51:47.088Z,14.20
2018-12-13T16:54:15.304Z,13.33
2018-12-13T16:56:43.430Z,12.60
2018-12-13T16:59:11.521Z,13.33
2018-12-13T17:01:40.726Z,12.87
2018-12-13T17:04:08.888Z,13.17
2018-12-13T17:06:37.126Z,12.70
2018-12-13T17:09:06.880Z,12.63
2018-12-13T17:11:35.350Z,13.67
2018-12-13T17:14:03.556Z,13.17
2018-12-13T17:16:31.682Z,12.53
2018-12-13T17:18:59.756Z,13.40
2018-12-13T17:21:27.860Z,13.63
2018-12-13T17:23:56.014Z,13.43
2018-12-13T17:26:24.207Z,13.40
2018-12-13T17:28:52.322Z,13.73
2018-12-13T17:31:20.554Z,14.10
2018-12-13T17:33:48.664Z,14.10
2018-12-13T17:36:16.777Z,13.97
2018-12-13T17:38:45.643Z,13.70
2018-12-13T17:41:13.991Z,14.13
2018-12-13T17:43:42.070Z,13.70
2018-12-13T17:46:10.307Z,14.37
2018-12-13T17:48:38.458Z,15.20
2018-12-13T17:51:07.089Z,14.60
2018-12-13T17:53:35.561Z,14.07
2018-12-13T17:56:04.395Z,13.87
2018-12-13T17:58:32.678Z,14.40
2018-12-13T18:01:03.097Z,15.63
2018-12-13T18:03:31.260Z,14.17
2018-12-13T18:06:00.356Z,15.10
2018-12-13T18:08:29.241Z,15.57
2018-12-13T18:10:57.386Z,16.33
2018-12-13T18:13:26.278Z,14.87
2018-12-13T18:15:54.476Z,15.70
2018-12-13T18:18:23.157Z,15.53
2018-12-13T18:20:51.827Z,15.33
2018-12-13T18:23:22.158Z,15.03
2018-12-13T18:25:50.325Z,15.97
2018-12-13T18:28:19.499Z,16.37
2018-12-13T18:30:47.605Z,14.73
2018-12-13T18:33:16.555Z,14.33
2018-12-13T18:35:45.266Z,15.30
2018-12-13T18:38:20.437Z,16.60
2018-12-13T18:40:48.621Z,15.47
2018-12-13T18:43:16.731Z,14.80
2018-12-13T18:45:44.840Z,16.40
2018-12-13T18:48:13.771Z,15.67
2018-12-13T18:50:41.905Z,15.70
2018-12-13T18:53:11.257Z,14.90
2018-12-13T18:55:39.687Z,16.20
2018-12-13T18:58:07.821Z,16.27
2018-12-13T19:00:36.766Z,16.17
2018-12-13T19:03:05.604Z,16.47
2018-12-13T19:05:34.336Z,15.77
2018-12-13T19:08:02.571Z,17.00
2018-12-13T19:10:30.765Z,16.30
2018-12-13T19:12:58.899Z,16.90
2018-12-13T19:15:27.109Z,16.40
2018-12-13T19:17:55.235Z,16.03
2018-12-13T19:20:23.957Z,17.53
2018-12-13T19:22:52.845Z,17.83
2018-12-13T19:25:20.976Z,18.20
2018-12-13T19:27:49.191Z,18.03
2018-12-13T19:30:17.687Z,18.50
2018-12-13T19:32:45.944Z,17.07
2018-12-13T19:35:19.331Z,17.73
2018-12-13T19:37:44.320Z,17.77
2018-12-13T19:40:12.524Z,17.87
2018-12-13T19:42:40.723Z,18.10
2018-12-13T19:45:08.861Z,18.03
2018-12-13T19:47:37.099Z,18.53
2018-12-13T19:50:05.686Z,17.63
2018-12-13T19:52:33.831Z,19.50
2018-12-13T19:55:01.916Z,18.40
2018-12-13T19:57:30.805Z,18.67
2018-12-13T19:59:58.986Z,18.90
2018-12-13T20:02:27.138Z,18.63
2018-12-13T20:04:55.328Z,17.70
2018-12-13T20:07:23.660Z,17.63
2018-12-13T20:09:51.762Z,17.87
2018-12-13T20:12:20.009Z,18.70
2018-12-13T20:14:49.050Z,18.70
2018-12-13T20:17:17.273Z,17.73
2018-12-13T20:19:45.364Z,17.40
2018-12-13T20:22:13.521Z,18.83
2018-12-13T20:24:41.614Z,17.77
2018-12-13T20:27:09.794Z,17.37
2018-12-13T20:29:38.566Z,17.17
2018-12-13T20:34:55.287Z,17.17
2018-12-13T20:37:23.766Z,17.30
2018-12-13T20:39:51.855Z,16.57
2018-12-13T20:42:20.017Z,17.53
2018-12-13T20:44:48.131Z,16.87
2018-12-13T20:47:16.268Z,15.83
2018-12-13T20:49:44.354Z,15.13
2018-12-13T20:52:12.473Z,17.03
2018-12-13T20:54:40.574Z,15.90
2018-12-13T20:57:08.688Z,17.07
2018-12-13T20:59:36.814Z,16.97
2018-12-13T21:02:05.364Z,16.43
2018-12-13T21:04:33.507Z,16.67
2018-12-13T21:07:07.500Z,16.33
2018-12-13T21:09:35.647Z,14.87
2018-12-13T21:12:03.866Z,15.07
2018-12-13T21:14:32.231Z,15.67
2018-12-13T21:17:00.340Z,16.30
2018-12-13T21:19:28.450Z,15.30
2018-12-13T21:21:56.588Z,15.97
2018-12-13T21:24:24.697Z,15.73
2018-12-13T21:26:52.931Z,15.57
2018-12-13T21:29:21.018Z,15.40
2018-12-13T21:31:49.194Z,14.77
2018-12-13T21:34:17.337Z,15.00
2018-12-13T21:36:45.480Z,14.50
2018-12-13T21:39:13.665Z,13.77
2018-12-13T21:41:41.796Z,13.93
2018-12-13T21:44:09.877Z,13.87
2018-12-13T21:46:38.031Z,13.70
2018-12-13T21:49:06.310Z,14.70
2018-12-13T21:51:34.576Z,13.57
2018-12-13T21:54:02.841Z,13.03
2018-12-13T21:56:30.966Z,13.97
2018-12-13T21:59:03.644Z,13.00
2018-12-13T22:01:29.382Z,13.30
2018-12-13T22:03:57.536Z,13.60
2018-12-13T22:06:25.768Z,13.77
2018-12-13T22:08:53.891Z,13.40
2018-12-13T22:11:22.055Z,14.33
2018-12-13T22:13:50.170Z,14.13
2018-12-13T22:16:18.472Z,13.90
2018-12-13T22:18:46.708Z,13.50
2018-12-13T22:21:14.964Z,13.80
2018-12-13T22:23:43.139Z,13.27
2018-12-13T22:26:11.513Z,13.60
2018-12-13T22:28:40.073Z,13.13
2018-12-13T22:31:09.663Z,14.27
2018-12-13T22:33:42.088Z,13.67
2018-12-13T22:36:10.269Z,13.33
2018-12-13T22:38:38.438Z,13.13
2018-12-13T22:41:06.805Z,13.90
2018-12-13T22:43:35.117Z,13.63
2018-12-13T22:46:03.818Z,13.70
2018-12-13T22:48:32.733Z,13.87
2018-12-13T22:51:02.004Z,13.43
2018-12-13T22:53:30.181Z,13.50
2018-12-13T22:55:58.421Z,13.83
2018-12-13T22:58:26.755Z,12.97
2018-12-13T23:00:55.167Z,13.60
2018-12-13T23:03:23.365Z,13.80
2018-12-13T23:05:51.592Z,13.10
2018-12-13T23:08:19.807Z,12.83
2018-12-13T23:10:48.237Z,13.57
2018-12-13T23:13:16.399Z,11.77
2018-12-13T23:15:44.535Z,13.90
2018-12-13T23:18:12.701Z,13.00
2018-12-13T23:20:40.813Z,13.80
2018-12-13T23:23:08.961Z,13.80
2018-12-13T23:25:37.111Z,12.97
2018-12-13T23:28:05.392Z,13.20
2018-12-13T23:30:33.499Z,12.70
2018-12-13T23:33:01.649Z,12.97
2018-12-13T23:35:29.941Z,14.03
2018-12-13T23:37:58.157Z,13.00
2018-12-13T23:40:26.495Z,13.60
2018-12-13T23:42:55.460Z,13.73
2018-12-13T23:45:23.655Z,13.17
2018-12-13T23:47:52.060Z,14.07
2018-12-13T23:50:20.881Z,14.07
2018-12-13T23:52:49.203Z,13.87
2018-12-13T23:55:17.512Z,14.53
2018-12-13T23:57:45.690Z,14.30
